Time;durP1;ratioP1;P1;durP2;ratioP2;P2;SDS_P1;SDS_P2;PMS_P1;PMS_P2;Temp;Humidity;BMP_temperature;BMP_pressure;BME280_temperature;BME280_humidity;BME280_pressure;Samples;Min_cycle;Max_cycle;Signal;HPM_P1;HPM_P2
2023/10/02 00:00:40;;;;;;;57.10;3.03;;;;;;;;;;5152425;27;20981;-69
2023/10/02 00:03:09;;;;;;;57.23;3.10;;;;;;;;;;5152502;27;20450;-69
2023/10/02 00:05:41;;;;;;;56.77;2.80;;;;;;;;;;5152411;27;20543;-69
2023/10/02 00:08:31;;;;;;;57.40;3.03;;;;;;;;;;5152446;27;20561;-69
2023/10/02 00:11:05;;;;;;;58.03;2.57;;;;;;;;;;5151921;27;20946;-69
2023/10/02 00:13:31;;;;;;;57.27;3.40;;;;;;;;;;5152739;27;20547;-69
2023/10/02 00:15:59;;;;;;;57.47;3.87;;;;;;;;;;5152267;27;20957;-69
2023/10/02 00:18:28;;;;;;;56.90;2.63;;;;;;;;;;5152379;27;20475;-69
2023/10/02 00:21:17;;;;;;;57.10;3.43;;;;;;;;;;5152196;27;20440;-69
2023/10/02 00:23:59;;;;;;;56.63;2.80;;;;;;;;;;5151818;27;20943;-69
2023/10/02 00:26:27;;;;;;;57.13;2.90;;;;;;;;;;5152382;27;20432;-69
2023/10/02 00:28:57;;;;;;;56.80;2.70;;;;;;;;;;5152082;27;20559;-69
2023/10/02 00:31:35;;;;;;;56.53;2.67;;;;;;;;;;5152160;27;20450;-69
2023/10/02 00:34:03;;;;;;;57.90;3.10;;;;;;;;;;5152180;27;20950;-69
2023/10/02 00:36:30;;;;;;;60.00;3.83;;;;;;;;;;5152058;27;20450;-69
2023/10/02 00:42:10;;;;;;;57.00;2.80;;;;;;;;;;5151762;27;20493;-69
2023/10/02 00:44:51;;;;;;;56.90;2.90;;;;;;;;;;5151795;27;20535;-69
2023/10/02 00:47:35;;;;;;;57.83;4.33;;;;;;;;;;5152241;27;20500;-69
2023/10/02 00:50:08;;;;;;;58.67;3.70;;;;;;;;;;5151959;27;20512;-69
2023/10/02 00:52:36;;;;;;;57.53;3.63;;;;;;;;;;5153469;27;20444;-68
2023/10/02 00:55:06;;;;;;;56.67;2.70;;;;;;;;;;5127062;27;20467;-68
2023/10/02 00:57:36;;;;;;;56.70;2.50;;;;;;;;;;5135149;27;20882;-68
2023/10/02 01:00:06;;;;;;;57.47;3.00;;;;;;;;;;5135147;27;20448;-68
2023/10/02 01:02:34;;;;;;;56.87;2.83;;;;;;;;;;5135291;27;20536;-68
2023/10/02 01:05:03;;;;;;;56.57;2.70;;;;;;;;;;5134897;27;20476;-68
2023/10/02 01:07:33;;;;;;;57.10;3.20;;;;;;;;;;5134752;27;20525;-68
2023/10/02 01:10:17;;;;;;;56.67;2.60;;;;;;;;;;5139859;27;20463;-69
2023/10/02 01:12:49;;;;;;;56.80;2.70;;;;;;;;;;5144661;27;20827;-69
2023/10/02 01:15:19;;;;;;;56.47;2.60;;;;;;;;;;5144262;27;20448;-69
2023/10/02 01:17:47;;;;;;;57.00;3.00;;;;;;;;;;5135756;27;20472;-69
2023/10/02 01:20:20;;;;;;;56.60;2.47;;;;;;;;;;5146465;27;20443;-69
2023/10/02 01:22:52;;;;;;;57.03;3.27;;;;;;;;;;5155459;27;20452;-69
2023/10/02 01:25:23;;;;;;;56.87;3.13;;;;;;;;;;5155374;27;20824;-69
2023/10/02 01:27:51;;;;;;;56.90;2.70;;;;;;;;;;5155098;27;20467;-69
2023/10/02 01:30:20;;;;;;;56.57;2.60;;;;;;;;;;5155009;27;20440;-68
2023/10/02 01:33:06;;;;;;;56.47;2.40;;;;;;;;;;5155020;27;20988;-68
2023/10/02 01:35:33;;;;;;;57.50;3.30;;;;;;;;;;5155243;27;20898;-68
2023/10/02 01:38:01;;;;;;;57.20;2.53;;;;;;;;;;5154690;27;20971;-68
2023/10/02 01:40:34;;;;;;;56.67;2.50;;;;;;;;;;5154935;27;20444;-68
2023/10/02 01:43:12;;;;;;;56.67;2.60;;;;;;;;;;5154821;27;20509;-68
2023/10/02 01:45:41;;;;;;;59.53;3.97;;;;;;;;;;5155001;27;20483;-68
2023/10/02 01:48:09;;;;;;;57.87;3.17;;;;;;;;;;5154812;27;20472;-68
2023/10/02 01:50:36;;;;;;;57.20;2.83;;;;;;;;;;5145467;27;20931;-68
2023/10/02 01:53:06;;;;;;;56.90;2.50;;;;;;;;;;5146032;27;20522;-69
2023/10/02 01:55:36;;;;;;;56.53;2.47;;;;;;;;;;5138311;27;20441;-69
2023/10/02 01:58:17;;;;;;;56.77;3.00;;;;;;;;;;5142361;27;20473;-69
2023/10/02 02:00:46;;;;;;;56.70;2.70;;;;;;;;;;5143154;27;20506;-69
2023/10/02 02:03:17;;;;;;;56.90;3.10;;;;;;;;;;5153984;27;20815;-69
2023/10/02 02:05:46;;;;;;;56.77;2.77;;;;;;;;;;5154217;27;20483;-69
2023/10/02 02:08:23;;;;;;;58.27;3.10;;;;;;;;;;5154300;27;20501;-69
2023/10/02 02:10:53;;;;;;;57.03;3.50;;;;;;;;;;5154255;27;20440;-69
2023/10/02 02:13:21;;;;;;;56.70;2.87;;;;;;;;;;5154458;27;20530;-69
2023/10/02 02:15:51;;;;;;;56.70;2.30;;;;;;;;;;5153756;27;20792;-69
2023/10/02 02:18:20;;;;;;;56.50;2.50;;;;;;;;;;5154090;27;20467;-69
2023/10/02 02:20:58;;;;;;;57.53;3.23;;;;;;;;;;5153919;27;20469;-69
2023/10/02 02:23:27;;;;;;;57.00;2.80;;;;;;;;;;5154174;27;20847;-69
2023/10/02 02:25:56;;;;;;;57.23;2.77;;;;;;;;;;5153886;27;20849;-69
2023/10/02 02:28:23;;;;;;;59.33;3.10;;;;;;;;;;5153648;27;20476;-68
2023/10/02 02:30:50;;;;;;;56.67;2.50;;;;;;;;;;5153800;27;20447;-68
2023/10/02 02:33:34;;;;;;;56.57;2.70;;;;;;;;;;5154160;27;20781;-69
2023/10/02 02:36:05;;;;;;;56.73;2.50;;;;;;;;;;5153827;27;21033;-69
2023/10/02 02:38:33;;;;;;;56.53;2.70;;;;;;;;;;5154159;27;20558;-69
2023/10/02 02:41:09;;;;;;;57.07;3.00;;;;;;;;;;5153356;27;20451;-69
2023/10/02 02:43:38;;;;;;;56.70;2.57;;;;;;;;;;5153967;27;20470;-69
2023/10/02 02:46:06;;;;;;;56.67;2.50;;;;;;;;;;5153443;27;20491;-69
2023/10/02 02:48:43;;;;;;;56.80;2.43;;;;;;;;;;5153595;27;20562;-69
2023/10/02 02:51:18;;;;;;;58.17;3.03;;;;;;;;;;5153220;27;20455;-69
2023/10/02 02:53:46;;;;;;;56.77;3.03;;;;;;;;;;5153524;27;21021;-69
2023/10/02 02:56:18;;;;;;;57.40;2.80;;;;;;;;;;5153418;27;20448;-69
2023/10/02 02:58:46;;;;;;;56.77;2.60;;;;;;;;;;5153462;27;20472;-69
2023/10/02 03:01:12;;;;;;;56.50;2.67;;;;;;;;;;5153280;27;20443;-69
2023/10/02 03:03:41;;;;;;;57.30;3.00;;;;;;;;;;5153321;27;20448;-69
2023/10/02 03:06:17;;;;;;;57.47;3.57;;;;;;;;;;5124109;27;20488;-68
2023/10/02 03:08:44;;;;;;;56.87;2.80;;;;;;;;;;5129150;27;20468;-68
2023/10/02 03:11:12;;;;;;;56.37;2.20;;;;;;;;;;5140735;27;20933;-68
2023/10/02 03:13:40;;;;;;;56.77;2.60;;;;;;;;;;5146505;27;20448;-68
2023/10/02 03:16:13;;;;;;;56.90;3.33;;;;;;;;;;5140241;27;20437;-68
2023/10/02 03:18:43;;;;;;;57.40;3.83;;;;;;;;;;5131946;27;20809;-68
2023/10/02 03:21:15;;;;;;;56.40;2.13;;;;;;;;;;5136275;27;20450;-68
2023/10/02 03:23:43;;;;;;;56.60;2.60;;;;;;;;;;5144404;27;20471;-68
2023/10/02 03:26:26;;;;;;;56.80;2.57;;;;;;;;;;5152897;27;20925;-68
2023/10/02 03:29:00;;;;;;;56.60;2.53;;;;;;;;;;5141245;27;20508;-67
2023/10/02 03:31:34;;;;;;;56.47;2.40;;;;;;;;;;5137871;27;20448;-67
2023/10/02 03:34:24;;;;;;;56.47;2.60;;;;;;;;;;5132191;27;20531;-68
2023/10/02 03:36:48;;;;;;;56.90;2.60;;;;;;;;;;5131779;27;20452;-68
2023/10/02 03:39:23;;;;;;;56.67;2.60;;;;;;;;;;5131832;27;20472;-68
2023/10/02 03:41:55;;;;;;;56.60;2.80;;;;;;;;;;5132467;27;20502;-67
2023/10/02 03:44:23;;;;;;;56.50;2.50;;;;;;;;;;5132201;27;20551;-69
2023/10/02 03:46:53;;;;;;;56.70;2.67;;;;;;;;;;5131847;27;20488;-69
2023/10/02 03:49:23;;;;;;;56.30;2.50;;;;;;;;;;5131743;27;20486;-69
2023/10/02 03:51:50;;;;;;;58.53;3.20;;;;;;;;;;5132122;27;20497;-69
2023/10/02 03:54:21;;;;;;;56.47;2.90;;;;;;;;;;5131921;27;20449;-69
2023/10/02 03:56:49;;;;;;;58.40;2.73;;;;;;;;;;5131621;27;20454;-69
2023/10/02 03:59:20;;;;;;;57.17;2.73;;;;;;;;;;5131576;27;20467;-69
2023/10/02 04:01:50;;;;;;;56.80;2.63;;;;;;;;;;5131667;27;20936;-68
2023/10/02 04:04:21;;;;;;;56.90;3.10;;;;;;;;;;5131632;27;20491;-68
2023/10/02 04:06:50;;;;;;;56.40;2.50;;;;;;;;;;5131678;27;20517;-68
2023/10/02 04:09:21;;;;;;;60.83;4.53;;;;;;;;;;5131825;27;20471;-68
2023/10/02 04:11:50;;;;;;;56.17;2.40;;;;;;;;;;5131668;27;20933;-68
2023/10/02 04:14:18;;;;;;;57.40;2.80;;;;;;;;;;5131626;27;20444;-68
2023/10/02 04:16:47;;;;;;;56.60;2.73;;;;;;;;;;5131927;27;20469;-68
2023/10/02 04:19:15;;;;;;;58.90;2.90;;;;;;;;;;5131640;27;20513;-68
2023/10/02 04:21:44;;;;;;;56.33;2.33;;;;;;;;;;5131356;27;20449;-69
2023/10/02 04:24:10;;;;;;;56.57;2.30;;;;;;;;;;5131892;27;20440;-68
2023/10/02 04:26:41;;;;;;;56.50;2.20;;;;;;;;;;5132991;27;20878;-68
2023/10/02 04:29:25;;;;;;;56.40;2.50;;;;;;;;;;5135222;27;20564;-68
2023/10/02 04:32:11;;;;;;;56.70;2.60;;;;;;;;;;5135566;27;20436;-68
2023/10/02 04:34:46;;;;;;;56.57;2.57;;;;;;;;;;5135505;27;20455;-68
2023/10/02 04:37:19;;;;;;;56.60;2.50;;;;;;;;;;5135545;27;20820;-68
2023/10/02 04:39:54;;;;;;;57.00;3.13;;;;;;;;;;5135103;27;20455;-68
2023/10/02 04:42:25;;;;;;;56.57;2.40;;;;;;;;;;5135387;27;20500;-68
2023/10/02 04:44:56;;;;;;;56.80;2.83;;;;;;;;;;5135450;27;20452;-68
2023/10/02 04:47:23;;;;;;;57.30;2.70;;;;;;;;;;5135248;27;20479;-68
2023/10/02 04:55:24;;;;;;;56.70;2.90;;;;;;;;;;5135204;27;20550;-69
2023/10/02 04:57:54;;;;;;;56.77;3.20;;;;;;;;;;5134911;27;20499;-68
2023/10/02 05:00:27;;;;;;;58.80;3.10;;;;;;;;;;5134884;27;20441;-69
2023/10/02 05:03:09;;;;;;;56.67;2.50;;;;;;;;;;5135031;27;20444;-69
2023/10/02 05:05:38;;;;;;;57.97;3.27;;;;;;;;;;5135000;27;20951;-69
2023/10/02 05:08:10;;;;;;;56.43;2.23;;;;;;;;;;5134621;27;20612;-68
2023/10/02 05:10:37;;;;;;;56.50;2.60;;;;;;;;;;5132858;27;20968;-68
2023/10/02 05:13:08;;;;;;;60.20;3.80;;;;;;;;;;5143137;27;20774;-69
2023/10/02 05:15:34;;;;;;;56.37;2.50;;;;;;;;;;5141452;27;20440;-68
2023/10/02 05:18:03;;;;;;;56.67;2.60;;;;;;;;;;5136295;27;20461;-68
2023/10/02 05:20:38;;;;;;;57.50;3.90;;;;;;;;;;5134662;27;20456;-68
2023/10/02 05:23:06;;;;;;;59.50;3.27;;;;;;;;;;5136806;27;20447;-68
2023/10/02 05:25:36;;;;;;;57.30;2.70;;;;;;;;;;5140203;27;20459;-68
2023/10/02 05:28:05;;;;;;;56.90;2.77;;;;;;;;;;5134499;27;20468;-68
2023/10/02 05:30:42;;;;;;;57.10;2.43;;;;;;;;;;5134226;27;20480;-68
2023/10/02 05:33:13;;;;;;;60.00;5.30;;;;;;;;;;5134233;27;20484;-69
2023/10/02 05:35:45;;;;;;;57.00;2.50;;;;;;;;;;5134439;27;20445;-69
2023/10/02 05:38:16;;;;;;;65.03;3.20;;;;;;;;;;5133529;27;20472;-69
2023/10/02 05:40:47;;;;;;;56.60;2.90;;;;;;;;;;5134525;27;20449;-69
2023/10/02 05:43:18;;;;;;;56.70;2.50;;;;;;;;;;5137771;27;20918;-69
2023/10/02 05:45:48;;;;;;;56.50;2.50;;;;;;;;;;5138153;27;20481;-69
2023/10/02 05:48:22;;;;;;;56.40;2.10;;;;;;;;;;5133929;27;20488;-69
2023/10/02 05:50:52;;;;;;;56.17;2.23;;;;;;;;;;5134032;27;20457;-69
2023/10/02 05:53:25;;;;;;;56.97;3.13;;;;;;;;;;5126488;27;20842;-69
2023/10/02 05:55:56;;;;;;;58.60;2.40;;;;;;;;;;5134182;27;20953;-69
2023/10/02 05:58:27;;;;;;;57.57;3.23;;;;;;;;;;5133778;27;20469;-70
2023/10/02 06:01:01;;;;;;;56.40;2.30;;;;;;;;;;5133660;27;20820;-69
2023/10/02 06:03:29;;;;;;;56.40;2.27;;;;;;;;;;5133941;27;20440;-69
2023/10/02 06:06:17;;;;;;;57.70;2.70;;;;;;;;;;5133785;27;20477;-68
2023/10/02 06:08:49;;;;;;;59.60;3.93;;;;;;;;;;5133778;27;20867;-68
2023/10/02 06:11:32;;;;;;;56.50;2.70;;;;;;;;;;5133501;27;20807;-69
2023/10/02 06:14:09;;;;;;;57.10;2.90;;;;;;;;;;5133775;27;20896;-68
2023/10/02 06:16:37;;;;;;;56.83;2.30;;;;;;;;;;5134072;27;20497;-68
2023/10/02 06:19:06;;;;;;;60.87;3.90;;;;;;;;;;5133307;27;20851;-68
2023/10/02 06:21:45;;;;;;;56.80;2.50;;;;;;;;;;5133172;27;20762;-69
2023/10/02 06:24:14;;;;;;;56.90;2.50;;;;;;;;;;5132961;27;20440;-69
2023/10/02 06:26:57;;;;;;;56.77;3.00;;;;;;;;;;5133438;27;20481;-69
2023/10/02 06:29:24;;;;;;;56.57;2.30;;;;;;;;;;5133595;27;20465;-69
2023/10/02 06:31:58;;;;;;;57.90;4.17;;;;;;;;;;5133304;27;20543;-69
2023/10/02 06:34:25;;;;;;;56.47;2.20;;;;;;;;;;5125968;27;20457;-69
2023/10/02 06:37:02;;;;;;;56.47;2.50;;;;;;;;;;5133170;27;20447;-69
2023/10/02 06:39:35;;;;;;;57.10;2.60;;;;;;;;;;5132899;27;20986;-69
2023/10/02 06:42:04;;;;;;;56.50;2.30;;;;;;;;;;5133290;27;20442;-69
2023/10/02 06:44:37;;;;;;;56.40;2.50;;;;;;;;;;5132985;27;20468;-69
2023/10/02 06:47:11;;;;;;;57.30;2.93;;;;;;;;;;5132690;27;20864;-70
2023/10/02 06:49:39;;;;;;;56.60;2.60;;;;;;;;;;5132855;27;20451;-69
2023/10/02 06:52:13;;;;;;;56.90;2.67;;;;;;;;;;5132932;27;20485;-69
2023/10/02 06:54:43;;;;;;;56.57;2.60;;;;;;;;;;5132635;27;20467;-69
2023/10/02 06:57:13;;;;;;;58.33;4.90;;;;;;;;;;5132535;27;20489;-69
2023/10/02 06:59:40;;;;;;;56.60;2.30;;;;;;;;;;5132600;27;20591;-68
2023/10/02 07:02:12;;;;;;;57.07;3.17;;;;;;;;;;5132899;27;20449;-68
2023/10/02 07:04:39;;;;;;;57.80;3.27;;;;;;;;;;5132753;27;20463;-69
2023/10/02 07:07:10;;;;;;;57.00;3.23;;;;;;;;;;5132371;27;21008;-70
2023/10/02 07:09:37;;;;;;;56.60;2.77;;;;;;;;;;5130153;27;20493;-70
2023/10/02 07:12:14;;;;;;;57.07;4.03;;;;;;;;;;5141192;27;20536;-70
2023/10/02 07:14:42;;;;;;;56.97;3.23;;;;;;;;;;5119957;27;20825;-70
2023/10/02 07:17:16;;;;;;;59.77;3.57;;;;;;;;;;5147901;27;20454;-69
2023/10/02 07:19:50;;;;;;;57.43;3.63;;;;;;;;;;5140606;27;20467;-69
2023/10/02 07:22:23;;;;;;;57.67;2.87;;;;;;;;;;5132272;27;20512;-69
2023/10/02 07:24:52;;;;;;;56.50;2.43;;;;;;;;;;5132102;27;20455;-70
2023/10/02 07:27:25;;;;;;;56.53;2.70;;;;;;;;;;5131905;27;20488;-69
2023/10/02 07:29:56;;;;;;;56.70;3.00;;;;;;;;;;5132220;27;20444;-69
2023/10/02 07:32:23;;;;;;;57.00;2.80;;;;;;;;;;5132223;27;20437;-69
2023/10/02 07:34:51;;;;;;;56.90;2.60;;;;;;;;;;5132074;27;20440;-72
2023/10/02 07:37:21;;;;;;;57.30;2.33;;;;;;;;;;5132182;27;20436;-69
2023/10/02 07:39:48;;;;;;;56.47;2.83;;;;;;;;;;5131817;27;20494;-69
2023/10/02 07:42:16;;;;;;;57.20;3.10;;;;;;;;;;5131780;27;20824;-69
2023/10/02 07:44:45;;;;;;;56.77;2.63;;;;;;;;;;5131699;27;20480;-69
2023/10/02 07:47:17;;;;;;;56.67;3.10;;;;;;;;;;5142599;27;20480;-69
2023/10/02 07:49:47;;;;;;;56.17;2.60;;;;;;;;;;5152461;27;20543;-69
2023/10/02 07:52:26;;;;;;;57.73;3.03;;;;;;;;;;5152776;27;20831;-69
2023/10/02 07:54:58;;;;;;;56.37;2.60;;;;;;;;;;5152292;27;20443;-69
2023/10/02 07:57:30;;;;;;;57.20;3.20;;;;;;;;;;5123804;27;21006;-69
2023/10/02 07:59:59;;;;;;;56.27;2.43;;;;;;;;;;5131755;27;20452;-70
2023/10/02 08:02:30;;;;;;;56.37;2.30;;;;;;;;;;5131536;27;20440;-70
2023/10/02 08:04:59;;;;;;;56.97;3.13;;;;;;;;;;5131691;27;20545;-68
2023/10/02 08:07:28;;;;;;;57.37;3.37;;;;;;;;;;5131395;27;20491;-68
2023/10/02 08:09:57;;;;;;;58.27;4.90;;;;;;;;;;5131345;27;20543;-68
2023/10/02 08:12:30;;;;;;;57.10;3.60;;;;;;;;;;5123360;28;20441;-69
2023/10/02 08:15:05;;;;;;;57.97;3.03;;;;;;;;;;5131747;27;20452;-69
2023/10/02 08:20:24;;;;;;;57.27;3.00;;;;;;;;;;5131019;27;21008;-68
2023/10/02 08:22:52;;;;;;;58.00;3.53;;;;;;;;;;5131596;27;20544;-69
2023/10/02 08:25:23;;;;;;;59.03;2.90;;;;;;;;;;5131269;27;20815;-68
2023/10/02 08:27:55;;;;;;;57.67;3.07;;;;;;;;;;5131247;27;21052;-68
2023/10/02 08:30:31;;;;;;;56.67;3.03;;;;;;;;;;5131750;27;20441;-68
2023/10/02 08:33:05;;;;;;;57.30;3.13;;;;;;;;;;5131336;27;20969;-68
2023/10/02 08:35:32;;;;;;;56.37;2.60;;;;;;;;;;5131720;27;20532;-69
2023/10/02 08:38:00;;;;;;;60.20;3.23;;;;;;;;;;5131005;27;20460;-69
2023/10/02 08:40:27;;;;;;;58.07;4.13;;;;;;;;;;5131129;27;20443;-69
2023/10/02 08:42:54;;;;;;;59.10;3.57;;;;;;;;;;5131089;27;20436;-69
2023/10/02 08:45:23;;;;;;;58.17;2.97;;;;;;;;;;5131139;27;20443;-69
2023/10/02 08:47:52;;;;;;;56.57;2.60;;;;;;;;;;5131419;27;20591;-69
2023/10/02 08:50:20;;;;;;;58.50;2.77;;;;;;;;;;5131052;27;20456;-69
2023/10/02 08:52:51;;;;;;;58.20;3.13;;;;;;;;;;5131047;27;20476;-69
2023/10/02 08:55:35;;;;;;;57.13;2.80;;;;;;;;;;5131141;27;20517;-69
2023/10/02 08:58:15;;;;;;;56.60;2.63;;;;;;;;;;5130658;28;20460;-69
2023/10/02 09:03:42;;;;;;;56.40;2.60;;;;;;;;;;5131263;28;20423;-70
2023/10/02 09:06:31;;;;;;;58.13;3.70;;;;;;;;;;5131088;27;20441;-70
2023/10/02 09:09:16;;;;;;;56.90;3.00;;;;;;;;;;5129690;27;20460;-70
2023/10/02 09:11:44;;;;;;;56.90;2.43;;;;;;;;;;5132304;27;20531;-70
2023/10/02 09:14:21;;;;;;;56.47;2.40;;;;;;;;;;5136842;27;20448;-70
2023/10/02 09:17:12;;;;;;;57.57;2.93;;;;;;;;;;5139929;27;20444;-68
2023/10/02 09:19:39;;;;;;;57.00;2.83;;;;;;;;;;5134480;27;20945;-68
2023/10/02 09:22:14;;;;;;;57.07;2.47;;;;;;;;;;5143128;27;20455;-69
2023/10/02 09:24:55;;;;;;;58.60;3.50;;;;;;;;;;5134548;27;20440;-68
2023/10/02 09:27:24;;;;;;;57.23;2.90;;;;;;;;;;5137756;27;20495;-68
2023/10/02 09:30:15;;;;;;;57.27;2.40;;;;;;;;;;5146905;27;20500;-69
2023/10/02 09:32:49;;;;;;;59.20;2.90;;;;;;;;;;5154978;27;20526;-68
2023/10/02 09:35:22;;;;;;;56.87;2.60;;;;;;;;;;5154873;27;20546;-68
2023/10/02 09:37:55;;;;;;;56.90;2.30;;;;;;;;;;5155012;27;20838;-68
2023/10/02 09:40:22;;;;;;;56.87;2.63;;;;;;;;;;5154984;27;20450;-69
2023/10/02 09:42:50;;;;;;;57.50;2.50;;;;;;;;;;5155159;27;20440;-69
2023/10/02 09:45:17;;;;;;;57.93;4.20;;;;;;;;;;5154852;27;20446;-69
2023/10/02 09:47:47;;;;;;;57.23;2.70;;;;;;;;;;5155011;27;20486;-70
2023/10/02 09:50:23;;;;;;;59.03;4.50;;;;;;;;;;5154576;27;20456;-68
2023/10/02 09:52:58;;;;;;;57.97;2.60;;;;;;;;;;5154807;27;20456;-68
2023/10/02 09:55:34;;;;;;;57.87;2.83;;;;;;;;;;5154332;27;20927;-68
2023/10/02 09:58:03;;;;;;;57.57;2.60;;;;;;;;;;5155107;27;20459;-69
2023/10/02 10:00:37;;;;;;;56.80;2.27;;;;;;;;;;5154524;27;20432;-69
2023/10/02 10:03:34;;;;;;;57.97;2.83;;;;;;;;;;5154400;27;20563;-68
2023/10/02 10:06:27;;;;;;;57.20;2.70;;;;;;;;;;5089941;28;20449;-70
2023/10/02 10:09:25;;;;;;;56.93;2.10;;;;;;;;;;5151015;27;21007;-70
2023/10/02 10:12:21;;;;;;;56.37;2.37;;;;;;;;;;5154671;27;20555;-68
2023/10/02 10:14:40;;;;;;;56.67;3.13;;;;;;;;;;5154243;27;20428;-69
2023/10/02 10:17:13;;;;;;;55.70;2.10;;;;;;;;;;5154186;27;20497;-69
2023/10/02 10:19:41;;;;;;;57.10;3.43;;;;;;;;;;5154343;27;20508;-69
2023/10/02 10:27:58;;;;;;;57.27;2.90;;;;;;;;;;5082663;28;20571;-69
2023/10/02 10:30:47;;;;;;;56.10;2.20;;;;;;;;;;5067937;28;20449;-69
2023/10/02 10:33:34;;;;;;;57.07;2.20;;;;;;;;;;5067983;28;20871;-69
2023/10/02 10:36:08;;;;;;;55.40;1.93;;;;;;;;;;5068158;28;20937;-69
2023/10/02 10:38:36;;;;;;;56.57;2.90;;;;;;;;;;5060648;28;20494;-69
2023/10/02 10:41:06;;;;;;;56.10;2.37;;;;;;;;;;5067648;28;20456;-69
2023/10/02 10:43:55;;;;;;;56.60;2.90;;;;;;;;;;5067849;28;20859;-69
2023/10/02 10:46:23;;;;;;;56.27;2.40;;;;;;;;;;5067527;28;20452;-71
2023/10/02 10:48:59;;;;;;;57.80;2.27;;;;;;;;;;5067716;28;20490;-70
2023/10/02 10:51:27;;;;;;;58.33;4.30;;;;;;;;;;5067584;28;20859;-70
2023/10/02 10:54:00;;;;;;;56.13;2.53;;;;;;;;;;5067120;28;20447;-68
2023/10/02 10:56:29;;;;;;;56.13;3.00;;;;;;;;;;5067378;28;20454;-68
2023/10/02 10:59:02;;;;;;;56.37;2.57;;;;;;;;;;5067027;28;20566;-69
2023/10/02 11:01:29;;;;;;;56.97;3.23;;;;;;;;;;5067495;28;20448;-69
2023/10/02 11:04:02;;;;;;;56.90;3.60;;;;;;;;;;5067319;28;20553;-69
2023/10/02 11:06:30;;;;;;;57.03;3.30;;;;;;;;;;5067260;28;20450;-69
2023/10/02 11:09:11;;;;;;;57.70;3.70;;;;;;;;;;5065677;28;20471;-70
2023/10/02 11:11:49;;;;;;;56.67;3.33;;;;;;;;;;5067269;28;20871;-69
2023/10/02 11:14:20;;;;;;;57.40;3.13;;;;;;;;;;5066233;28;20439;-69
2023/10/02 11:16:51;;;;;;;57.10;2.90;;;;;;;;;;5066847;28;20924;-68
2023/10/02 11:19:21;;;;;;;56.60;2.77;;;;;;;;;;5066902;28;20550;-70
2023/10/02 11:22:15;;;;;;;55.70;2.80;;;;;;;;;;5061152;28;20451;-70
2023/10/02 11:24:43;;;;;;;57.93;3.43;;;;;;;;;;5059594;28;21037;-71
2023/10/02 11:27:14;;;;;;;57.10;3.30;;;;;;;;;;5066681;28;20444;-70
2023/10/02 11:29:42;;;;;;;56.80;3.30;;;;;;;;;;5066644;28;20454;-70
2023/10/02 11:32:22;;;;;;;56.00;3.23;;;;;;;;;;5066627;28;20526;-69
2023/10/02 11:34:49;;;;;;;55.80;2.80;;;;;;;;;;5061708;28;20539;-69
2023/10/02 11:37:17;;;;;;;59.03;3.70;;;;;;;;;;5053397;28;20450;-68
2023/10/02 11:39:50;;;;;;;56.00;3.20;;;;;;;;;;5052996;28;20454;-69
2023/10/02 11:42:21;;;;;;;57.50;3.87;;;;;;;;;;5053400;28;20547;-69
2023/10/02 11:44:48;;;;;;;56.63;3.30;;;;;;;;;;5053298;28;20487;-68
2023/10/02 11:47:16;;;;;;;57.63;3.67;;;;;;;;;;5053537;28;20444;-69
2023/10/02 11:49:43;;;;;;;56.37;2.97;;;;;;;;;;5052996;28;20449;-68
2023/10/02 11:52:10;;;;;;;55.50;2.73;;;;;;;;;;5053010;28;20903;-69
2023/10/02 11:54:39;;;;;;;58.20;4.73;;;;;;;;;;5052819;28;20441;-69
2023/10/02 11:57:08;;;;;;;57.87;3.87;;;;;;;;;;5053074;28;20459;-69
2023/10/02 11:59:37;;;;;;;58.00;3.30;;;;;;;;;;5053112;28;20495;-69
2023/10/02 12:02:05;;;;;;;57.60;3.60;;;;;;;;;;5053226;28;20452;-68
2023/10/02 12:04:33;;;;;;;56.40;3.17;;;;;;;;;;5053007;28;20488;-69
2023/10/02 12:07:01;;;;;;;56.37;2.83;;;;;;;;;;5052934;28;20449;-69
2023/10/02 12:09:28;;;;;;;56.63;4.10;;;;;;;;;;5051762;28;21512;-69
2023/10/02 12:11:55;;;;;;;57.40;3.87;;;;;;;;;;5052673;28;20456;-69
2023/10/02 12:14:23;;;;;;;58.27;3.77;;;;;;;;;;5052516;28;20459;-69
2023/10/02 12:16:52;;;;;;;57.53;3.60;;;;;;;;;;5052624;28;20449;-70
2023/10/02 12:19:19;;;;;;;55.37;3.10;;;;;;;;;;5052191;28;20573;-69
2023/10/02 12:21:47;;;;;;;56.10;3.70;;;;;;;;;;5052287;28;20554;-70
2023/10/02 12:24:14;;;;;;;56.67;3.23;;;;;;;;;;5051949;28;20495;-69
2023/10/02 12:26:43;;;;;;;57.27;4.00;;;;;;;;;;5052722;28;20540;-69
2023/10/02 12:29:11;;;;;;;57.70;3.77;;;;;;;;;;5052283;28;20476;-69
2023/10/02 12:31:38;;;;;;;56.93;4.47;;;;;;;;;;5052357;28;20842;-69
2023/10/02 12:34:06;;;;;;;58.23;3.77;;;;;;;;;;5052529;28;20448;-68
2023/10/02 12:36:34;;;;;;;59.77;4.67;;;;;;;;;;5052137;28;20459;-69
2023/10/02 12:39:03;;;;;;;61.93;5.60;;;;;;;;;;5052026;28;20471;-69
2023/10/02 12:41:32;;;;;;;57.93;3.83;;;;;;;;;;5052446;28;20582;-69
2023/10/02 12:43:59;;;;;;;57.70;4.27;;;;;;;;;;5052159;28;20488;-69
2023/10/02 12:46:27;;;;;;;57.80;5.03;;;;;;;;;;5051114;28;20456;-68
2023/10/02 12:48:57;;;;;;;58.07;4.60;;;;;;;;;;5051948;28;20559;-69
2023/10/02 12:51:26;;;;;;;58.57;4.60;;;;;;;;;;5051818;28;20455;-68
2023/10/02 12:53:53;;;;;;;58.63;4.80;;;;;;;;;;5051920;28;20476;-68
2023/10/02 12:56:21;;;;;;;56.80;4.13;;;;;;;;;;5052050;28;20448;-69
2023/10/02 12:58:50;;;;;;;57.10;4.13;;;;;;;;;;5051887;28;20555;-69
2023/10/02 13:01:17;;;;;;;59.13;4.53;;;;;;;;;;5051702;28;20448;-69
2023/10/02 13:03:45;;;;;;;58.03;4.93;;;;;;;;;;5051779;28;20485;-68
2023/10/02 13:06:13;;;;;;;58.47;3.70;;;;;;;;;;5051887;28;20460;-68
2023/10/02 13:08:43;;;;;;;58.70;4.80;;;;;;;;;;5051460;28;20560;-68
2023/10/02 13:11:12;;;;;;;57.37;4.30;;;;;;;;;;5050779;28;20960;-68
2023/10/02 13:13:41;;;;;;;60.07;4.70;;;;;;;;;;5051741;28;20878;-68
2023/10/02 13:16:08;;;;;;;60.93;6.70;;;;;;;;;;5051528;28;20834;-68
2023/10/02 13:18:35;;;;;;;60.30;4.13;;;;;;;;;;5051076;28;20960;-69
2023/10/02 13:21:02;;;;;;;57.57;4.50;;;;;;;;;;5051133;28;20962;-69
2023/10/02 13:23:29;;;;;;;57.90;4.10;;;;;;;;;;5051265;28;20456;-69
2023/10/02 13:25:58;;;;;;;62.67;5.87;;;;;;;;;;5051561;28;20459;-69
2023/10/02 13:28:25;;;;;;;58.70;4.60;;;;;;;;;;5051306;28;20842;-69
2023/10/02 13:30:53;;;;;;;58.70;5.20;;;;;;;;;;5051111;28;20455;-69
2023/10/02 13:33:21;;;;;;;57.77;4.53;;;;;;;;;;5051170;28;20959;-69
2023/10/02 13:35:57;;;;;;;59.20;4.17;;;;;;;;;;5051535;28;20444;-69
2023/10/02 13:38:25;;;;;;;60.10;5.27;;;;;;;;;;5051146;28;20475;-69
2023/10/02 13:40:52;;;;;;;57.77;4.67;;;;;;;;;;5051144;28;20449;-69
2023/10/02 13:43:20;;;;;;;59.10;4.33;;;;;;;;;;5050993;28;20539;-69
2023/10/02 13:45:48;;;;;;;58.83;4.60;;;;;;;;;;5050629;28;20491;-69
2023/10/02 13:48:16;;;;;;;58.27;4.37;;;;;;;;;;5048798;28;20474;-69
2023/10/02 13:50:43;;;;;;;58.10;3.73;;;;;;;;;;5050740;28;20934;-69
2023/10/02 13:53:10;;;;;;;57.43;3.50;;;;;;;;;;5051203;28;20453;-69
2023/10/02 13:55:38;;;;;;;56.17;3.87;;;;;;;;;;5050662;28;20452;-69
2023/10/02 13:58:06;;;;;;;57.87;4.13;;;;;;;;;;5050428;28;20473;-69
2023/10/02 14:00:39;;;;;;;57.20;4.70;;;;;;;;;;5050573;28;20452;-69
2023/10/02 14:03:10;;;;;;;55.87;3.20;;;;;;;;;;5051051;28;20460;-69
2023/10/02 14:05:39;;;;;;;58.00;4.30;;;;;;;;;;5050545;28;20580;-68
2023/10/02 14:08:07;;;;;;;57.67;4.87;;;;;;;;;;5050562;28;20513;-69
2023/10/02 14:10:34;;;;;;;55.60;4.40;;;;;;;;;;5050417;28;21694;-69
2023/10/02 14:13:03;;;;;;;56.67;3.20;;;;;;;;;;5050725;28;20453;-70
2023/10/02 14:15:32;;;;;;;57.67;3.30;;;;;;;;;;5050455;28;21000;-69
2023/10/02 14:18:01;;;;;;;56.00;3.40;;;;;;;;;;5050721;28;20983;-69
2023/10/02 14:20:28;;;;;;;56.67;4.10;;;;;;;;;;5049915;28;20461;-69
2023/10/02 14:22:55;;;;;;;57.37;4.03;;;;;;;;;;5050338;28;20460;-69
2023/10/02 14:25:24;;;;;;;57.17;4.03;;;;;;;;;;5050575;28;20496;-68
2023/10/02 14:27:51;;;;;;;56.17;3.47;;;;;;;;;;5050496;28;20910;-69
2023/10/02 14:30:19;;;;;;;58.23;3.87;;;;;;;;;;5050334;28;20449;-69
2023/10/02 14:32:50;;;;;;;58.10;3.63;;;;;;;;;;5050495;28;21048;-70
2023/10/02 14:35:19;;;;;;;58.70;4.00;;;;;;;;;;5050396;28;20476;-70
2023/10/02 14:37:48;;;;;;;56.20;3.50;;;;;;;;;;5050328;28;20833;-69
2023/10/02 14:40:19;;;;;;;56.70;3.80;;;;;;;;;;5050539;28;20448;-69
2023/10/02 14:42:47;;;;;;;58.60;4.20;;;;;;;;;;5050393;28;20945;-69
2023/10/02 14:45:15;;;;;;;58.40;3.87;;;;;;;;;;5050306;28;20876;-69
2023/10/02 14:47:43;;;;;;;56.67;3.40;;;;;;;;;;5050142;28;20465;-69
2023/10/02 14:50:11;;;;;;;58.20;4.10;;;;;;;;;;5050054;28;21022;-69
2023/10/02 14:52:41;;;;;;;58.70;4.80;;;;;;;;;;5050286;28;20440;-69
2023/10/02 14:55:09;;;;;;;58.40;3.43;;;;;;;;;;5050174;28;20951;-69
2023/10/02 14:57:37;;;;;;;56.50;3.23;;;;;;;;;;5050020;28;20466;-69
2023/10/02 15:00:09;;;;;;;57.37;3.80;;;;;;;;;;5050174;28;20808;-69
2023/10/02 15:02:36;;;;;;;58.10;4.33;;;;;;;;;;5050147;28;20455;-69
2023/10/02 15:05:03;;;;;;;58.37;4.13;;;;;;;;;;5050319;28;20495;-69
2023/10/02 15:07:31;;;;;;;57.30;3.53;;;;;;;;;;5050193;28;20475;-69
2023/10/02 15:09:59;;;;;;;61.90;5.47;;;;;;;;;;5050813;28;20451;-69
2023/10/02 15:12:29;;;;;;;58.70;3.83;;;;;;;;;;5053878;28;20498;-69
2023/10/02 15:14:57;;;;;;;57.17;4.13;;;;;;;;;;5053762;28;20440;-69